createdAt,value
2018-07-31T00:00:22.567Z,5.75
2018-07-31T00:02:51.635Z,5.53
2018-07-31T00:05:21.141Z,5.45
2018-07-31T00:07:49.607Z,5.80
2018-07-31T00:10:17.939Z,6.10
2018-07-31T00:12:46.315Z,5.72
2018-07-31T00:15:14.763Z,5.67
2018-07-31T00:17:43.391Z,5.45
2018-07-31T00:20:11.779Z,5.65
2018-07-31T00:22:40.086Z,5.55
2018-07-31T00:25:08.743Z,5.90
2018-07-31T00:27:37.159Z,5.30
2018-07-31T00:30:07.928Z,5.63
2018-07-31T00:32:36.360Z,5.43
2018-07-31T00:35:04.764Z,5.70
2018-07-31T00:37:33.630Z,6.37
2018-07-31T00:40:01.963Z,5.42
2018-07-31T00:42:30.616Z,5.73
2018-07-31T00:44:59.064Z,5.73
2018-07-31T00:47:27.408Z,5.67
2018-07-31T00:49:55.786Z,5.05
2018-07-31T00:52:24.197Z,5.72
2018-07-31T00:54:53.616Z,5.70
2018-07-31T00:57:21.976Z,5.23
2018-07-31T00:59:50.645Z,5.58
2018-07-31T01:02:19.016Z,5.37
2018-07-31T01:04:49.118Z,5.50
2018-07-31T01:07:18.299Z,5.67
2018-07-31T01:09:48.242Z,5.30
2018-07-31T01:12:18.415Z,5.95
2018-07-31T01:14:47.386Z,5.47
2018-07-31T01:17:15.848Z,5.28
2018-07-31T01:19:45.738Z,5.55
2018-07-31T01:22:14.234Z,5.50
2018-07-31T01:24:42.644Z,5.78
2018-07-31T01:27:11.124Z,5.87
2018-07-31T01:29:39.601Z,5.65
2018-07-31T01:32:08.073Z,5.63
2018-07-31T01:34:36.467Z,5.17
2018-07-31T01:37:04.798Z,5.12
2018-07-31T01:39:33.134Z,5.60
2018-07-31T01:42:01.469Z,5.30
2018-07-31T01:44:29.991Z,5.50
2018-07-31T01:46:58.363Z,5.60
2018-07-31T01:49:26.742Z,5.03
2018-07-31T01:51:55.126Z,5.07
2018-07-31T01:54:25.894Z,5.70
2018-07-31T01:56:54.285Z,5.10
2018-07-31T01:59:22.604Z,5.55
2018-07-31T02:01:51.129Z,5.85
2018-07-31T02:04:19.883Z,5.50
2018-07-31T02:06:48.366Z,5.35
2018-07-31T02:09:16.801Z,5.30
2018-07-31T02:11:45.162Z,5.47
2018-07-31T02:14:13.495Z,5.53
2018-07-31T02:16:41.806Z,5.57
2018-07-31T02:19:10.157Z,5.40
2018-07-31T02:21:38.718Z,5.03
2018-07-31T02:24:07.062Z,5.23
2018-07-31T02:26:35.373Z,5.30
2018-07-31T02:29:03.747Z,5.53
2018-07-31T02:31:32.079Z,5.50
2018-07-31T02:34:00.820Z,5.47
2018-07-31T02:36:29.138Z,5.27
2018-07-31T02:38:57.562Z,4.90
2018-07-31T02:41:25.941Z,5.03
2018-07-31T02:43:54.294Z,5.93
2018-07-31T02:46:22.648Z,5.30
2018-07-31T02:48:51.009Z,4.80
2018-07-31T02:51:19.349Z,5.23
2018-07-31T02:53:47.700Z,5.33
2018-07-31T02:56:16.026Z,5.47
2018-07-31T02:58:44.388Z,5.63
2018-07-31T03:01:12.747Z,5.23
2018-07-31T03:03:41.096Z,5.73
2018-07-31T03:06:09.420Z,5.10
2018-07-31T03:08:37.735Z,5.80
2018-07-31T03:11:06.427Z,5.33
2018-07-31T03:13:34.749Z,5.43
2018-07-31T03:16:03.123Z,5.40
2018-07-31T03:18:31.584Z,5.03
2018-07-31T03:20:59.891Z,5.40
2018-07-31T03:23:28.236Z,5.03
2018-07-31T03:25:56.588Z,5.40
2018-07-31T03:28:24.999Z,5.53
2018-07-31T03:30:53.333Z,5.30
2018-07-31T03:33:21.822Z,5.57
2018-07-31T03:35:50.156Z,5.73
2018-07-31T03:38:18.483Z,5.40
2018-07-31T03:40:46.955Z,5.77
2018-07-31T03:43:15.811Z,5.67
2018-07-31T03:45:44.121Z,6.20
2018-07-31T03:48:12.716Z,5.87
2018-07-31T03:50:41.190Z,5.07
2018-07-31T03:53:09.546Z,5.53
2018-07-31T03:55:37.921Z,5.63
2018-07-31T03:58:06.242Z,5.63
2018-07-31T04:00:34.551Z,5.83
2018-07-31T04:03:04.145Z,5.13
2018-07-31T04:05:33.841Z,6.23
2018-07-31T04:08:02.105Z,5.13
2018-07-31T04:10:30.792Z,5.83
2018-07-31T04:12:59.117Z,5.53
2018-07-31T04:15:27.434Z,5.73
2018-07-31T04:17:58.092Z,5.70
2018-07-31T04:20:28.309Z,5.37
2018-07-31T04:22:56.712Z,5.27
2018-07-31T04:25:25.686Z,5.63
2018-07-31T04:27:54.400Z,5.67
2018-07-31T04:30:22.714Z,6.00
2018-07-31T04:32:51.099Z,5.80
2018-07-31T04:35:19.464Z,5.50
2018-07-31T04:37:47.844Z,5.87
2018-07-31T04:40:16.229Z,5.70
2018-07-31T04:42:44.579Z,5.67
2018-07-31T04:45:12.957Z,5.67
2018-07-31T04:47:41.285Z,5.77
2018-07-31T04:50:10.349Z,5.17
2018-07-31T04:52:38.726Z,5.80
2018-07-31T04:55:07.087Z,5.83
2018-07-31T04:57:35.415Z,5.97
2018-07-31T05:00:03.839Z,6.13
2018-07-31T05:02:32.229Z,5.33
2018-07-31T05:05:00.616Z,5.77
2018-07-31T05:07:28.987Z,5.80
2018-07-31T05:09:57.340Z,6.20
2018-07-31T05:12:25.734Z,5.63
2018-07-31T05:14:54.100Z,5.63
2018-07-31T05:17:22.427Z,6.23
2018-07-31T05:19:50.867Z,5.97
2018-07-31T05:22:19.187Z,5.97
2018-07-31T05:24:47.565Z,5.60
2018-07-31T05:27:15.909Z,5.40
2018-07-31T05:29:44.826Z,6.40
2018-07-31T05:32:13.154Z,5.90
2018-07-31T05:34:41.479Z,5.70
2018-07-31T05:37:09.785Z,6.10
2018-07-31T05:39:38.095Z,5.57
2018-07-31T05:42:06.438Z,6.10
2018-07-31T05:44:34.775Z,5.90
2018-07-31T05:47:03.111Z,6.17
2018-07-31T05:49:31.454Z,6.30
2018-07-31T05:51:59.860Z,6.13
2018-07-31T05:54:28.145Z,6.60
2018-07-31T05:56:56.728Z,6.67
2018-07-31T05:59:25.081Z,6.87
2018-07-31T06:01:53.427Z,6.47
2018-07-31T06:04:21.764Z,6.60
2018-07-31T06:06:50.096Z,6.45
2018-07-31T06:09:18.420Z,6.65
2018-07-31T06:11:46.776Z,6.80
2018-07-31T06:14:15.124Z,6.42
2018-07-31T06:16:43.497Z,6.72
2018-07-31T06:19:11.845Z,6.50
2018-07-31T06:21:40.167Z,6.58
2018-07-31T06:24:08.751Z,6.08
2018-07-31T06:26:37.094Z,6.47
2018-07-31T06:29:05.431Z,6.33
2018-07-31T06:31:33.794Z,6.58
2018-07-31T06:34:02.137Z,6.30
2018-07-31T06:36:30.475Z,6.70
2018-07-31T06:38:58.846Z,5.97
2018-07-31T06:41:27.151Z,5.92
2018-07-31T06:43:55.515Z,6.75
2018-07-31T06:46:23.847Z,6.62
2018-07-31T06:48:52.396Z,6.15
2018-07-31T06:51:20.813Z,5.85
2018-07-31T06:53:49.106Z,6.65
2018-07-31T06:56:17.426Z,5.72
2018-07-31T06:58:45.756Z,6.12
2018-07-31T07:01:14.095Z,5.45
2018-07-31T07:03:42.461Z,6.45
2018-07-31T07:06:10.815Z,6.58
2018-07-31T07:08:39.167Z,6.30
2018-07-31T07:11:07.520Z,6.50
2018-07-31T07:13:35.856Z,6.37
2018-07-31T07:16:04.178Z,6.28
2018-07-31T07:18:33.147Z,6.03
2018-07-31T07:21:01.466Z,6.65
2018-07-31T07:23:29.819Z,6.42
2018-07-31T07:25:58.119Z,6.33
2018-07-31T07:28:26.486Z,6.60
2018-07-31T07:30:54.905Z,6.25
2018-07-31T07:33:24.480Z,6.10
2018-07-31T07:35:52.834Z,6.00
2018-07-31T07:38:21.249Z,6.33
2018-07-31T07:40:49.670Z,6.55
2018-07-31T07:43:18.067Z,6.10
2018-07-31T07:45:46.524Z,5.87
2018-07-31T07:48:14.917Z,6.03
2018-07-31T07:50:43.257Z,6.28
2018-07-31T07:53:11.643Z,6.25
2018-07-31T07:55:39.975Z,5.80
2018-07-31T07:58:08.330Z,6.08
2018-07-31T08:00:36.707Z,5.87
2018-07-31T08:03:05.311Z,6.20
2018-07-31T08:05:34.309Z,6.03
2018-07-31T08:08:03.686Z,6.15
2018-07-31T08:10:32.018Z,6.15
2018-07-31T08:13:00.402Z,6.87
2018-07-31T08:15:28.823Z,5.78
2018-07-31T08:17:57.139Z,5.85
2018-07-31T08:20:25.541Z,5.83
2018-07-31T08:22:53.912Z,6.45
2018-07-31T08:25:22.249Z,6.33
2018-07-31T08:27:50.660Z,6.72
2018-07-31T08:30:19.046Z,6.97
2018-07-31T08:32:47.435Z,6.22
2018-07-31T08:35:15.873Z,6.58
2018-07-31T08:37:44.791Z,6.28
2018-07-31T08:40:13.264Z,6.65
2018-07-31T08:42:41.626Z,6.15
2018-07-31T08:45:09.928Z,6.35
2018-07-31T08:47:38.346Z,6.53
2018-07-31T08:50:06.792Z,6.05
2018-07-31T08:52:35.112Z,6.60
2018-07-31T08:55:03.428Z,6.15
2018-07-31T08:57:31.807Z,6.15
2018-07-31T09:00:00.162Z,6.70
2018-07-31T09:02:28.546Z,6.62
2018-07-31T09:04:56.856Z,6.97
2018-07-31T09:07:25.206Z,6.25
2018-07-31T09:09:53.641Z,7.08
2018-07-31T09:12:21.994Z,6.90
2018-07-31T09:14:50.318Z,6.95
2018-07-31T09:17:18.675Z,6.60
2018-07-31T09:19:46.999Z,6.60
2018-07-31T09:22:15.364Z,7.05
2018-07-31T09:24:43.674Z,7.40
2018-07-31T09:27:12.095Z,7.03
2018-07-31T09:29:40.416Z,6.85
2018-07-31T09:32:08.854Z,6.97
2018-07-31T09:34:42.515Z,6.37
2018-07-31T09:37:10.851Z,7.10
2018-07-31T09:39:39.181Z,6.35
2018-07-31T09:42:07.641Z,7.25
2018-07-31T09:44:36.014Z,6.30
2018-07-31T09:47:04.868Z,7.10
2018-07-31T09:49:33.228Z,6.78
2018-07-31T09:52:01.563Z,6.83
2018-07-31T09:54:29.903Z,6.75
2018-07-31T09:56:58.282Z,5.97
2018-07-31T09:59:26.653Z,6.08
2018-07-31T10:01:55.060Z,5.70
2018-07-31T10:04:23.408Z,5.30
2018-07-31T10:06:52.629Z,6.00
2018-07-31T10:09:20.986Z,5.62
2018-07-31T10:11:49.336Z,5.70
2018-07-31T10:14:17.641Z,5.65
2018-07-31T10:16:46.021Z,5.60
2018-07-31T10:19:15.113Z,5.33
2018-07-31T10:21:43.594Z,5.10
2018-07-31T10:24:11.985Z,5.15
2018-07-31T10:26:40.253Z,5.12
2018-07-31T10:29:08.563Z,5.25
2018-07-31T10:31:36.968Z,5.42
2018-07-31T10:34:05.293Z,5.92
2018-07-31T10:36:33.629Z,5.40
2018-07-31T10:39:02.030Z,6.05
2018-07-31T10:41:30.355Z,5.87
2018-07-31T10:43:58.751Z,5.25
2018-07-31T10:46:27.079Z,5.97
2018-07-31T10:48:55.493Z,5.65
2018-07-31T10:51:24.035Z,5.45
2018-07-31T10:53:52.327Z,5.25
2018-07-31T10:56:20.725Z,5.92
2018-07-31T10:58:49.048Z,5.42
2018-07-31T11:01:17.340Z,5.70
2018-07-31T11:03:46.086Z,5.22
2018-07-31T11:06:14.552Z,4.67
2018-07-31T11:08:42.859Z,4.90
2018-07-31T11:11:11.296Z,4.22
2018-07-31T11:13:39.674Z,4.70
2018-07-31T11:16:07.992Z,4.67
2018-07-31T11:18:36.590Z,5.00
2018-07-31T11:21:04.966Z,5.12
2018-07-31T11:23:33.307Z,4.80
2018-07-31T11:26:01.667Z,4.53
2018-07-31T11:28:29.951Z,4.80
2018-07-31T11:30:58.260Z,4.65
2018-07-31T11:33:26.590Z,4.50
2018-07-31T11:35:54.943Z,4.75
2018-07-31T11:38:23.275Z,4.85
2018-07-31T11:40:51.612Z,4.58
2018-07-31T11:43:19.924Z,4.30
2018-07-31T11:45:48.275Z,4.62
2018-07-31T11:48:16.642Z,4.95
2018-07-31T11:50:44.939Z,4.53
2018-07-31T11:53:13.324Z,4.22
2018-07-31T11:55:41.650Z,4.90
2018-07-31T11:58:09.988Z,4.58
2018-07-31T12:00:38.344Z,4.50
2018-07-31T12:03:07.458Z,4.87
2018-07-31T12:05:36.057Z,4.33
2018-07-31T12:08:04.376Z,4.33
2018-07-31T12:10:32.776Z,4.53
2018-07-31T12:13:01.082Z,4.70
2018-07-31T12:15:29.391Z,4.65
2018-07-31T12:17:58.202Z,4.40
2018-07-31T12:20:26.568Z,4.47
2018-07-31T12:22:56.859Z,5.17
2018-07-31T12:25:25.182Z,4.60
2018-07-31T12:27:53.540Z,5.58
2018-07-31T12:30:21.916Z,4.33
2018-07-31T12:32:50.271Z,4.62
2018-07-31T12:35:18.546Z,4.75
2018-07-31T12:37:46.915Z,4.80
2018-07-31T12:40:15.253Z,4.28
2018-07-31T12:42:43.637Z,4.33
2018-07-31T12:45:12.076Z,4.45
2018-07-31T12:47:40.397Z,4.30
2018-07-31T12:50:08.886Z,4.80
2018-07-31T12:52:37.216Z,4.90
2018-07-31T12:55:05.693Z,3.90
2018-07-31T12:57:34.019Z,4.60
2018-07-31T13:00:02.388Z,4.60
2018-07-31T13:02:30.695Z,4.87
2018-07-31T13:04:59.043Z,4.62
2018-07-31T13:07:27.391Z,4.78
2018-07-31T13:09:55.739Z,4.42
2018-07-31T13:12:24.038Z,4.78
2018-07-31T13:14:52.430Z,4.00
2018-07-31T13:17:20.838Z,4.62
2018-07-31T13:19:49.183Z,4.30
2018-07-31T13:22:18.178Z,4.72
2018-07-31T13:24:46.655Z,4.35
2018-07-31T13:27:14.980Z,4.72
2018-07-31T13:29:43.299Z,4.90
2018-07-31T13:32:11.641Z,4.62
2018-07-31T13:34:39.958Z,4.47
2018-07-31T13:37:08.638Z,4.58
2018-07-31T13:39:37.517Z,4.15
2018-07-31T13:42:06.129Z,4.58
2018-07-31T13:44:34.549Z,4.05
2018-07-31T13:47:03.016Z,4.65
2018-07-31T13:49:31.414Z,3.85
2018-07-31T13:51:59.707Z,4.22
2018-07-31T13:54:28.068Z,4.45
2018-07-31T13:56:56.484Z,4.83
2018-07-31T13:59:24.857Z,4.50
2018-07-31T14:01:53.166Z,4.65
2018-07-31T14:04:21.775Z,16.67
2018-07-31T14:06:50.114Z,6.37
2018-07-31T14:09:18.442Z,4.90
2018-07-31T14:11:46.764Z,4.25
2018-07-31T14:14:16.354Z,5.35
2018-07-31T14:16:46.617Z,4.80
2018-07-31T14:19:15.138Z,4.17
2018-07-31T14:21:43.689Z,4.92
2018-07-31T14:24:12.042Z,4.40
2018-07-31T14:26:41.809Z,4.40
2018-07-31T14:29:10.169Z,4.53
2018-07-31T14:31:39.183Z,4.70
2018-07-31T14:34:11.511Z,4.83
2018-07-31T14:36:40.094Z,4.40
2018-07-31T14:39:09.796Z,4.90
2018-07-31T14:41:38.166Z,4.53
2018-07-31T14:44:06.801Z,5.35
2018-07-31T14:46:35.165Z,4.95
2018-07-31T14:49:03.939Z,4.55
2018-07-31T14:51:32.924Z,4.67
2018-07-31T14:54:01.511Z,4.70
2018-07-31T14:56:29.838Z,4.40
2018-07-31T14:58:58.164Z,4.72
2018-07-31T15:01:26.468Z,4.87
2018-07-31T15:03:54.793Z,4.47
2018-07-31T15:06:23.128Z,4.83
2018-07-31T15:08:51.430Z,6.20
2018-07-31T15:11:19.792Z,5.35
2018-07-31T15:13:48.101Z,4.67
2018-07-31T15:16:16.422Z,5.25
2018-07-31T15:18:44.729Z,4.87
2018-07-31T15:21:13.090Z,4.85
2018-07-31T15:23:41.367Z,5.12
2018-07-31T15:26:09.728Z,5.17
2018-07-31T15:28:39.046Z,5.83
2018-07-31T15:31:08.293Z,5.20
2018-07-31T15:33:37.358Z,5.10
2018-07-31T15:36:06.454Z,4.75
2018-07-31T15:38:35.453Z,5.00
2018-07-31T15:41:04.557Z,4.70
2018-07-31T15:43:33.773Z,4.55
2018-07-31T15:46:02.795Z,4.92
2018-07-31T15:48:31.745Z,5.17
2018-07-31T15:51:00.638Z,4.78
2018-07-31T15:53:29.837Z,5.62
2018-07-31T15:55:59.634Z,4.65
2018-07-31T15:58:30.684Z,4.83
2018-07-31T16:00:59.255Z,5.70
2018-07-31T16:03:29.041Z,5.08
2018-07-31T16:05:58.162Z,5.55
2018-07-31T16:08:27.389Z,4.90
2018-07-31T16:10:56.681Z,4.78
2018-07-31T16:13:25.941Z,4.87
2018-07-31T16:15:55.117Z,5.08
2018-07-31T16:18:24.250Z,5.05
2018-07-31T16:20:53.415Z,5.40
2018-07-31T16:23:22.861Z,4.62
2018-07-31T16:25:54.001Z,4.92
2018-07-31T16:28:23.341Z,5.28
2018-07-31T16:30:52.312Z,5.67
2018-07-31T16:33:20.830Z,4.80
2018-07-31T16:35:49.171Z,5.00
2018-07-31T16:38:18.845Z,5.35
2018-07-31T16:40:47.509Z,5.58
2018-07-31T16:43:16.197Z,5.30
2018-07-31T16:45:44.659Z,5.28
2018-07-31T16:48:12.991Z,4.87
2018-07-31T16:50:42.179Z,5.15
2018-07-31T16:53:11.247Z,4.30
2018-07-31T16:55:40.513Z,4.92
2018-07-31T16:58:09.765Z,4.87
2018-07-31T17:00:38.767Z,4.75
2018-07-31T17:03:08.063Z,4.78
2018-07-31T17:05:37.899Z,5.40
2018-07-31T17:08:07.873Z,4.50
2018-07-31T17:10:37.024Z,4.85
2018-07-31T17:13:07.238Z,4.30
2018-07-31T17:15:35.564Z,4.50
2018-07-31T17:18:03.919Z,4.28
2018-07-31T17:20:32.258Z,4.00
2018-07-31T17:23:01.428Z,4.53
2018-07-31T17:25:29.758Z,3.65
2018-07-31T17:27:58.054Z,3.72
2018-07-31T17:30:26.445Z,3.27
2018-07-31T17:32:54.777Z,3.52
2018-07-31T17:35:23.151Z,3.55
2018-07-31T17:37:51.950Z,3.65
2018-07-31T17:40:20.261Z,3.98
2018-07-31T17:42:48.619Z,3.67
2018-07-31T17:45:16.907Z,3.25
2018-07-31T17:47:45.246Z,3.25
2018-07-31T17:50:13.538Z,3.95
2018-07-31T17:52:41.924Z,3.83
2018-07-31T17:55:10.226Z,3.00
2018-07-31T17:57:38.676Z,4.08
2018-07-31T18:00:07.270Z,3.55
2018-07-31T18:02:35.643Z,3.72
2018-07-31T18:05:04.118Z,3.10
2018-07-31T18:07:32.419Z,3.37
2018-07-31T18:10:00.722Z,3.47
2018-07-31T18:12:29.112Z,3.20
2018-07-31T18:14:57.457Z,2.98
2018-07-31T18:17:25.801Z,2.92
2018-07-31T18:19:54.097Z,3.20
2018-07-31T18:22:22.395Z,2.95
2018-07-31T18:24:50.717Z,3.17
2018-07-31T18:27:19.095Z,3.02
2018-07-31T18:29:47.414Z,3.12
2018-07-31T18:32:15.742Z,2.80
2018-07-31T18:34:44.066Z,2.60
2018-07-31T18:37:12.412Z,3.52
2018-07-31T18:39:41.521Z,2.67
2018-07-31T18:42:10.368Z,3.08
2018-07-31T18:44:38.715Z,2.70
2018-07-31T18:47:07.109Z,2.83
2018-07-31T18:49:35.439Z,2.65
2018-07-31T18:52:03.760Z,2.72
2018-07-31T18:54:32.071Z,2.75
2018-07-31T18:57:00.388Z,2.55
2018-07-31T18:59:28.731Z,3.00
2018-07-31T19:01:57.124Z,2.87
2018-07-31T19:04:25.652Z,3.02
2018-07-31T19:06:54.074Z,2.70
2018-07-31T19:09:22.408Z,2.87
2018-07-31T19:11:50.790Z,3.22
2018-07-31T19:14:19.166Z,2.75
2018-07-31T19:16:47.504Z,3.17
2018-07-31T19:19:15.843Z,2.72
2018-07-31T19:21:45.190Z,2.90
2018-07-31T19:24:13.507Z,2.62
2018-07-31T19:26:42.910Z,2.62
2018-07-31T19:29:11.181Z,2.90
2018-07-31T19:31:39.526Z,2.65
2018-07-31T19:34:07.893Z,2.98
2018-07-31T19:36:36.209Z,3.15
2018-07-31T19:39:06.426Z,2.80
2018-07-31T19:41:34.759Z,2.92
2018-07-31T19:44:03.110Z,2.75
2018-07-31T19:46:31.498Z,2.52
2018-07-31T19:48:59.846Z,2.65
2018-07-31T19:51:28.266Z,2.55
2018-07-31T19:53:56.672Z,2.27
2018-07-31T19:56:25.003Z,2.40
2018-07-31T19:58:53.332Z,2.95
2018-07-31T20:01:21.633Z,2.77
2018-07-31T20:03:49.963Z,2.58
2018-07-31T20:06:18.275Z,2.58
2018-07-31T20:08:46.599Z,2.58
2018-07-31T20:11:14.921Z,2.85
2018-07-31T20:13:43.229Z,2.95
2018-07-31T20:16:11.548Z,2.12
2018-07-31T20:18:39.953Z,2.45
2018-07-31T20:21:08.380Z,2.70
2018-07-31T20:23:37.057Z,2.87
2018-07-31T20:26:05.391Z,2.87
2018-07-31T20:28:33.727Z,2.90
2018-07-31T20:31:02.030Z,3.37
2018-07-31T20:33:30.866Z,2.70
2018-07-31T20:35:59.183Z,2.98
2018-07-31T20:38:27.805Z,2.83
2018-07-31T20:40:56.199Z,3.02
2018-07-31T20:43:24.553Z,2.90
2018-07-31T20:45:52.844Z,3.25
2018-07-31T20:48:21.248Z,2.83
2018-07-31T20:50:49.576Z,3.30
2018-07-31T20:53:17.938Z,2.75
2018-07-31T20:55:46.247Z,2.70
2018-07-31T20:58:15.018Z,2.75
2018-07-31T21:00:45.153Z,2.58
2018-07-31T21:03:13.570Z,2.50
2018-07-31T21:05:42.225Z,2.62
2018-07-31T21:08:10.612Z,2.90
2018-07-31T21:10:38.981Z,3.12
2018-07-31T21:13:07.500Z,3.05
2018-07-31T21:15:36.110Z,3.05
2018-07-31T21:18:04.512Z,3.25
2018-07-31T21:20:32.805Z,2.50
2018-07-31T21:23:01.182Z,3.12
2018-07-31T21:25:29.648Z,2.90
2018-07-31T21:27:57.982Z,2.80
2018-07-31T21:30:26.325Z,3.52
2018-07-31T21:32:55.088Z,2.60
2018-07-31T21:35:23.907Z,2.67
2018-07-31T21:37:52.515Z,2.67
2018-07-31T21:40:20.995Z,2.98
2018-07-31T21:42:49.592Z,2.65
2018-07-31T21:45:18.034Z,2.83
2018-07-31T21:47:46.440Z,3.08
2018-07-31T21:50:14.815Z,2.58
2018-07-31T21:52:43.210Z,2.85
2018-07-31T21:55:11.536Z,3.05
2018-07-31T21:57:39.918Z,2.80
2018-07-31T22:00:10.133Z,2.85
2018-07-31T22:02:38.612Z,2.52
2018-07-31T22:05:07.000Z,2.45
2018-07-31T22:07:35.384Z,2.87
2018-07-31T22:10:03.787Z,2.33
2018-07-31T22:12:32.135Z,2.40
2018-07-31T22:15:00.551Z,2.70
2018-07-31T22:17:28.924Z,2.52
2018-07-31T22:19:57.282Z,2.85
2018-07-31T22:22:25.656Z,2.72
2018-07-31T22:24:54.056Z,2.83
2018-07-31T22:27:22.523Z,2.45
2018-07-31T22:29:50.836Z,2.08
2018-07-31T22:32:19.243Z,2.37
2018-07-31T22:34:47.572Z,2.83
2018-07-31T22:37:15.924Z,2.90
2018-07-31T22:39:44.292Z,3.15
2018-07-31T22:42:12.728Z,2.37
2018-07-31T22:44:41.047Z,2.77
2018-07-31T22:47:09.412Z,2.98
2018-07-31T22:49:37.733Z,3.00
2018-07-31T22:52:06.127Z,2.52
2018-07-31T22:54:34.553Z,2.57
2018-07-31T22:57:02.955Z,2.53
2018-07-31T22:59:31.309Z,2.92
2018-07-31T23:01:59.722Z,3.00
2018-07-31T23:04:28.051Z,2.50
2018-07-31T23:06:56.409Z,2.27
2018-07-31T23:09:24.719Z,2.70
2018-07-31T23:11:53.050Z,2.83
2018-07-31T23:14:21.336Z,2.40
2018-07-31T23:16:49.686Z,2.33
2018-07-31T23:19:18.063Z,2.80
2018-07-31T23:21:46.475Z,2.27
2018-07-31T23:24:14.817Z,2.20
2018-07-31T23:26:43.196Z,2.77
2018-07-31T23:29:11.579Z,2.70
2018-07-31T23:31:39.965Z,2.50
2018-07-31T23:34:08.342Z,2.60
2018-07-31T23:36:37.126Z,2.50
2018-07-31T23:39:07.985Z,2.43
2018-07-31T23:41:36.570Z,2.33
2018-07-31T23:44:04.978Z,2.40
2018-07-31T23:46:33.332Z,2.40
2018-07-31T23:49:01.657Z,2.60
2018-07-31T23:51:30.045Z,2.10
2018-07-31T23:53:58.380Z,2.27
2018-07-31T23:56:26.747Z,2.20
2018-07-31T23:58:55.077Z,2.23
